createdAt,value
2018-06-01T00:01:26.524Z,66.43
2018-06-01T00:03:54.844Z,71.07
2018-06-01T00:06:23.179Z,68.10
2018-06-01T00:08:51.499Z,67.97
2018-06-01T00:11:19.819Z,71.00
2018-06-01T00:13:48.125Z,71.77
2018-06-01T00:16:16.459Z,76.33
2018-06-01T00:18:44.793Z,73.33
2018-06-01T00:21:13.145Z,72.43
2018-06-01T00:23:41.486Z,71.80
2018-06-01T00:26:09.819Z,68.57
2018-06-01T00:28:38.923Z,67.80
2018-06-01T00:31:08.030Z,70.30
2018-06-01T00:33:36.339Z,73.23
2018-06-01T00:36:04.683Z,76.93
2018-06-01T00:38:33.786Z,79.17
2018-06-01T00:41:02.101Z,74.27
2018-06-01T00:43:30.598Z,78.03
2018-06-01T00:45:59.710Z,73.47
2018-06-01T00:48:28.044Z,74.93
2018-06-01T00:50:56.384Z,76.57
2018-06-01T00:53:24.720Z,73.20
2018-06-01T00:55:53.067Z,73.30
2018-06-01T00:58:21.394Z,71.37
2018-06-01T01:00:49.708Z,71.87
2018-06-01T01:03:18.022Z,65.03
2018-06-01T01:05:46.360Z,69.10
2018-06-01T01:08:14.661Z,65.23
2018-06-01T01:10:43.021Z,72.47
2018-06-01T01:13:12.119Z,63.70
2018-06-01T01:15:40.438Z,69.60
2018-06-01T01:18:08.771Z,75.07
2018-06-01T01:20:37.081Z,78.33
2018-06-01T01:23:05.436Z,79.77
2018-06-01T01:25:33.758Z,77.23
2018-06-01T01:28:02.089Z,75.50
2018-06-01T01:30:30.411Z,76.07
2018-06-01T01:32:58.726Z,78.23
2018-06-01T01:35:27.063Z,85.57
2018-06-01T01:37:55.384Z,85.33
2018-06-01T01:40:24.513Z,102.60
2018-06-01T01:42:52.825Z,108.93
2018-06-01T01:45:21.157Z,105.80
2018-06-01T01:47:49.491Z,104.07
2018-06-01T01:50:17.830Z,118.97
2018-06-01T01:52:46.956Z,132.13
2018-06-01T01:55:15.278Z,133.03
2018-06-01T01:57:43.609Z,144.60
2018-06-01T02:00:11.922Z,150.23
2018-06-01T02:02:40.289Z,161.40
2018-06-01T02:05:08.670Z,155.93
2018-06-01T02:07:36.994Z,163.77
2018-06-01T02:10:05.337Z,177.57
2018-06-01T02:12:33.678Z,172.47
2018-06-01T02:15:02.028Z,181.53
2018-06-01T02:17:30.405Z,195.03
2018-06-01T02:19:58.742Z,208.57
2018-06-01T02:22:27.070Z,264.63
2018-06-01T02:24:55.401Z,354.50
2018-06-01T02:27:24.534Z,412.77
2018-06-01T02:29:52.894Z,450.57
2018-06-01T02:32:21.226Z,600.30
2018-06-01T02:34:49.550Z,656.77
2018-06-01T02:37:18.664Z,442.93
2018-06-01T02:39:46.999Z,542.33
2018-06-01T02:42:15.389Z,540.00
2018-06-01T02:44:43.713Z,881.70
2018-06-01T02:47:12.093Z,698.93
2018-06-01T02:49:40.468Z,522.10
2018-06-01T02:52:09.608Z,620.07
2018-06-01T02:54:37.992Z,372.77
2018-06-01T02:57:06.438Z,426.97
2018-06-01T02:59:34.756Z,388.83
2018-06-01T03:02:03.082Z,349.77
2018-06-01T03:04:31.417Z,856.40
2018-06-01T03:07:11.677Z,294.70
2018-06-01T03:09:39.993Z,695.57
2018-06-01T03:12:07.981Z,640.90
2018-06-01T03:14:36.337Z,606.67
2018-06-01T03:17:04.334Z,555.63
2018-06-01T03:19:32.673Z,752.77
2018-06-01T03:22:01.024Z,693.30
2018-06-01T03:24:30.119Z,432.70
2018-06-01T03:26:58.439Z,570.87
2018-06-01T03:29:26.800Z,705.70
2018-06-01T03:31:55.132Z,761.43
2018-06-01T03:34:23.479Z,665.03
2018-06-01T03:36:51.808Z,703.43
2018-06-01T03:39:20.172Z,762.77
2018-06-01T03:41:48.511Z,667.23
2018-06-01T03:44:16.840Z,664.37
2018-06-01T03:46:48.224Z,565.27
2018-06-01T03:49:16.546Z,440.03
2018-06-01T03:51:44.910Z,629.47
2018-06-01T03:54:13.237Z,663.23
2018-06-01T03:56:41.575Z,621.93
2018-06-01T03:59:09.934Z,499.03
2018-06-01T04:01:38.273Z,564.70
2018-06-01T04:04:06.609Z,532.17
2018-06-01T04:06:34.951Z,364.90
2018-06-01T04:09:02.851Z,464.90
2018-06-01T04:11:31.185Z,501.67
2018-06-01T04:13:59.523Z,451.33
2018-06-01T04:16:28.640Z,550.30
2018-06-01T04:18:56.976Z,213.30
2018-06-01T04:21:25.331Z,408.47
2018-06-01T04:23:53.658Z,390.73
2018-06-01T04:26:22.179Z,502.37
2018-06-01T04:28:50.548Z,391.67
2018-06-01T04:31:19.665Z,273.87
2018-06-01T04:33:47.995Z,326.10
2018-06-01T04:36:16.313Z,284.37
2018-06-01T04:38:44.643Z,360.60
2018-06-01T04:41:13.753Z,331.77
2018-06-01T04:43:42.066Z,201.33
2018-06-01T04:46:11.216Z,355.03
2018-06-01T04:48:39.552Z,295.83
2018-06-01T04:51:07.863Z,275.03
2018-06-01T04:53:36.196Z,311.03
2018-06-01T04:56:04.514Z,220.30
2018-06-01T04:58:33.801Z,312.43
2018-06-01T05:01:02.136Z,218.13
2018-06-01T05:03:30.454Z,244.90
2018-06-01T05:05:58.786Z,131.47
2018-06-01T05:08:27.119Z,138.00
2018-06-01T05:10:55.435Z,159.87
2018-06-01T05:13:23.791Z,130.87
2018-06-01T05:15:52.288Z,132.37
2018-06-01T05:18:20.601Z,136.60
2018-06-01T05:20:49.108Z,132.93
2018-06-01T05:23:17.431Z,121.27
2018-06-01T05:25:45.778Z,119.50
2018-06-01T05:28:14.114Z,127.60
2018-06-01T05:30:43.214Z,129.40
2018-06-01T05:33:11.697Z,115.43
2018-06-01T05:35:40.015Z,111.90
2018-06-01T05:38:08.104Z,120.27
2018-06-01T05:40:36.433Z,120.33
2018-06-01T05:43:05.506Z,109.13
2018-06-01T05:45:33.851Z,138.43
2018-06-01T05:48:02.732Z,129.32
2018-06-01T05:50:31.655Z,105.45
2018-06-01T05:53:00.529Z,112.90
2018-06-01T05:55:29.429Z,113.03
2018-06-01T05:57:58.286Z,100.47
2018-06-01T06:00:27.188Z,103.57
2018-06-01T06:02:56.080Z,98.03
2018-06-01T06:05:24.995Z,93.25
2018-06-01T06:07:53.872Z,82.10
2018-06-01T06:10:22.188Z,82.53
2018-06-01T06:12:50.499Z,73.73
2018-06-01T06:15:19.385Z,71.90
2018-06-01T06:17:49.941Z,67.03
2018-06-01T06:20:19.092Z,64.97
2018-06-01T06:22:48.059Z,61.35
2018-06-01T06:25:16.951Z,61.63
2018-06-01T06:27:45.831Z,63.60
2018-06-01T06:30:14.766Z,64.62
2018-06-01T06:32:43.645Z,56.83
2018-06-01T06:35:12.518Z,55.92
2018-06-01T06:37:41.426Z,52.90
2018-06-01T06:40:10.319Z,47.65
2018-06-01T06:42:39.291Z,52.17
2018-06-01T06:45:08.296Z,48.40
2018-06-01T06:47:37.631Z,47.38
2018-06-01T06:50:05.982Z,50.97
2018-06-01T06:52:34.871Z,47.65
2018-06-01T06:55:03.760Z,47.47
2018-06-01T06:57:32.656Z,45.60
2018-06-01T07:00:02.328Z,47.10
2018-06-01T07:02:31.222Z,45.12
2018-06-01T07:05:00.101Z,44.22
2018-06-01T07:07:28.983Z,43.42
2018-06-01T07:09:57.859Z,40.50
2018-06-01T07:12:26.747Z,43.33
2018-06-01T07:14:55.615Z,40.17
2018-06-01T07:17:23.938Z,34.58
2018-06-01T07:19:52.812Z,30.92
2018-06-01T07:22:21.766Z,30.80
2018-06-01T07:24:50.801Z,31.75
2018-06-01T07:27:19.710Z,32.50
2018-06-01T07:29:48.632Z,30.35
2018-06-01T07:32:17.511Z,28.15
2018-06-01T07:34:46.387Z,26.45
2018-06-01T07:37:15.258Z,27.40
2018-06-01T07:39:44.137Z,26.08
2018-06-01T07:42:13.799Z,25.67
2018-06-01T07:44:42.714Z,27.00
2018-06-01T07:47:11.596Z,26.08
2018-06-01T07:49:40.495Z,23.30
2018-06-01T07:52:09.425Z,24.45
2018-06-01T07:54:38.370Z,24.12
2018-06-01T07:57:07.426Z,24.30
2018-06-01T07:59:36.297Z,25.08
2018-06-01T08:02:05.211Z,24.55
2018-06-01T08:04:34.103Z,22.83
2018-06-01T08:07:02.989Z,23.50
2018-06-01T08:09:31.929Z,23.62
2018-06-01T08:12:00.831Z,24.45
2018-06-01T08:14:30.519Z,25.27
2018-06-01T08:16:59.406Z,24.50
2018-06-01T08:19:28.358Z,25.58
2018-06-01T08:21:57.358Z,26.35
2018-06-01T08:24:25.696Z,27.73
2018-06-01T08:26:54.612Z,28.02
2018-06-01T08:29:23.670Z,26.67
2018-06-01T08:31:52.575Z,26.60
2018-06-01T08:34:21.466Z,28.20
2018-06-01T08:36:50.349Z,26.02
2018-06-01T08:39:24.643Z,28.83
2018-06-01T08:41:53.701Z,29.37
2018-06-01T08:44:22.605Z,28.73
2018-06-01T08:46:51.481Z,28.87
2018-06-01T08:49:20.558Z,27.77
2018-06-01T08:51:49.429Z,30.00
2018-06-01T08:54:18.325Z,30.67
2018-06-01T08:56:47.218Z,29.10
2018-06-01T08:59:16.158Z,29.45
2018-06-01T09:01:45.164Z,28.77
2018-06-01T09:04:14.040Z,28.48
2018-06-01T09:06:42.923Z,28.95
2018-06-01T09:09:11.803Z,28.10
2018-06-01T09:14:04.230Z,27.62
2018-06-01T09:16:33.897Z,28.85
2018-06-01T09:19:03.536Z,28.73
2018-06-01T09:21:32.414Z,30.37
2018-06-01T09:24:01.295Z,28.92
2018-06-01T09:26:30.169Z,29.80
2018-06-01T09:28:59.075Z,30.37
2018-06-01T09:31:27.959Z,29.65
2018-06-01T09:33:56.832Z,26.37
2018-06-01T09:36:25.845Z,24.80
2018-06-01T09:38:54.731Z,27.15
2018-06-01T09:41:23.677Z,25.33
2018-06-01T09:43:52.566Z,29.17
2018-06-01T09:46:21.471Z,29.02
2018-06-01T09:48:50.350Z,26.60
2018-06-01T09:51:18.691Z,26.30
2018-06-01T09:53:47.593Z,27.90
2018-06-01T09:56:16.455Z,28.77
2018-06-01T09:58:46.106Z,29.23
2018-06-01T10:01:14.758Z,32.42
2018-06-01T10:03:43.673Z,34.08
2018-06-01T10:06:12.577Z,35.33
2018-06-01T10:08:41.123Z,35.10
2018-06-01T10:11:10.010Z,35.10
2018-06-01T10:13:38.893Z,33.03
2018-06-01T10:16:07.793Z,33.03
2018-06-01T10:18:36.432Z,33.40
2018-06-01T10:21:06.079Z,30.75
2018-06-01T10:23:34.974Z,31.60
2018-06-01T10:26:03.858Z,31.17
2018-06-01T10:28:32.764Z,31.65
2018-06-01T10:31:01.632Z,29.40
2018-06-01T10:33:30.554Z,29.73
2018-06-01T10:35:59.419Z,28.42
2018-06-01T10:38:28.312Z,29.45
2018-06-01T10:40:57.227Z,26.08
2018-06-01T10:43:27.055Z,25.77
2018-06-01T10:45:55.929Z,25.08
2018-06-01T10:48:24.813Z,26.48
2018-06-01T10:50:53.701Z,24.10
2018-06-01T10:53:22.598Z,22.87
2018-06-01T10:55:51.489Z,21.58
2018-06-01T10:58:20.390Z,21.20
2018-06-01T11:00:49.269Z,23.00
2018-06-01T11:03:18.877Z,22.08
2018-06-01T11:05:47.749Z,20.98
2018-06-01T11:08:16.637Z,20.20
2018-06-01T11:10:45.519Z,20.27
2018-06-01T11:13:14.413Z,19.15
2018-06-01T11:15:43.323Z,17.92
2018-06-01T11:18:13.003Z,16.42
2018-06-01T11:20:41.872Z,18.65
2018-06-01T11:23:11.524Z,18.90
2018-06-01T11:25:40.425Z,19.50
2018-06-01T11:28:09.306Z,19.92
2018-06-01T11:30:38.241Z,20.70
2018-06-01T11:33:07.126Z,19.65
2018-06-01T11:35:36.035Z,20.17
2018-06-01T11:38:05.105Z,20.50
2018-06-01T11:40:33.995Z,20.48
2018-06-01T11:43:02.906Z,21.95
2018-06-01T11:45:31.799Z,20.73
2018-06-01T11:48:00.721Z,20.67
2018-06-01T11:50:29.632Z,21.40
2018-06-01T11:52:58.518Z,21.52
2018-06-01T11:55:28.049Z,21.55
2018-06-01T11:57:56.984Z,18.92
2018-06-01T12:00:25.876Z,17.73
2018-06-01T12:02:54.788Z,18.75
2018-06-01T12:05:23.725Z,15.52
2018-06-01T12:07:52.609Z,15.57
2018-06-01T12:10:21.487Z,14.85
2018-06-01T12:12:50.377Z,16.08
2018-06-01T12:15:19.266Z,16.12
2018-06-01T12:17:48.216Z,16.25
2018-06-01T12:20:17.284Z,16.27
2018-06-01T12:22:46.209Z,16.10
2018-06-01T12:25:15.103Z,17.20
2018-06-01T12:27:44.009Z,18.10
2018-06-01T12:30:12.927Z,19.12
2018-06-01T12:32:41.866Z,18.83
2018-06-01T12:35:10.756Z,19.37
2018-06-01T12:37:39.656Z,18.87
2018-06-01T12:40:08.528Z,19.40
2018-06-01T12:42:37.439Z,20.65
2018-06-01T12:45:06.346Z,20.58
2018-06-01T12:47:35.228Z,21.30
2018-06-01T12:50:04.881Z,21.02
2018-06-01T12:52:33.803Z,21.27
2018-06-01T12:55:02.695Z,24.95
2018-06-01T12:57:31.605Z,20.83
2018-06-01T13:00:00.501Z,20.80
2018-06-01T13:02:28.815Z,22.93
2018-06-01T13:04:57.706Z,24.27
2018-06-01T13:07:26.591Z,22.40
2018-06-01T13:09:55.493Z,19.20
2018-06-01T13:12:24.415Z,21.55
2018-06-01T13:14:53.321Z,20.83
2018-06-01T13:17:21.904Z,22.10
2018-06-01T13:19:50.796Z,20.45
2018-06-01T13:22:19.683Z,19.62
2018-06-01T13:24:48.606Z,19.42
2018-06-01T13:27:17.505Z,18.70
2018-06-01T13:29:46.409Z,18.80
2018-06-01T13:32:15.483Z,16.90
2018-06-01T13:34:44.390Z,17.12
2018-06-01T13:37:13.272Z,16.48
2018-06-01T13:39:42.160Z,15.65
2018-06-01T13:42:11.067Z,17.05
2018-06-01T13:44:39.970Z,16.48
2018-06-01T13:47:08.909Z,17.42
2018-06-01T13:49:37.818Z,18.62
2018-06-01T13:52:06.888Z,19.00
2018-06-01T13:54:35.796Z,16.42
2018-06-01T13:57:04.127Z,19.02
2018-06-01T13:59:33.037Z,18.87
2018-06-01T14:02:01.939Z,19.05
2018-06-01T14:04:30.873Z,19.27
2018-06-01T14:06:59.952Z,16.50
2018-06-01T14:09:28.871Z,15.52
2018-06-01T14:11:57.920Z,15.10
2018-06-01T14:14:26.833Z,13.90
2018-06-01T14:16:55.713Z,14.15
2018-06-01T14:19:24.596Z,14.38
2018-06-01T14:21:53.492Z,16.37
2018-06-01T14:24:22.438Z,17.27
2018-06-01T14:26:51.347Z,19.95
2018-06-01T14:29:19.676Z,20.55
2018-06-01T14:31:48.021Z,23.27
2018-06-01T14:34:16.338Z,20.37
2018-06-01T14:36:44.671Z,18.70
2018-06-01T14:39:13.011Z,20.90
2018-06-01T14:41:41.321Z,21.27
2018-06-01T14:44:09.674Z,21.90
2018-06-01T14:46:37.999Z,21.17
2018-06-01T14:49:06.341Z,19.70
2018-06-01T14:51:34.671Z,21.83
2018-06-01T14:54:03.005Z,22.83
2018-06-01T14:56:31.349Z,21.07
2018-06-01T14:58:59.672Z,21.93
2018-06-01T15:01:27.983Z,23.00
2018-06-01T15:03:56.323Z,23.40
2018-06-01T15:06:24.629Z,24.03
2018-06-01T15:08:52.945Z,24.00
2018-06-01T15:11:21.276Z,23.90
2018-06-01T15:13:49.615Z,26.83
2018-06-01T15:16:18.167Z,26.90
2018-06-01T15:18:46.168Z,28.07
2018-06-01T15:21:14.502Z,30.63
2018-06-01T15:23:42.819Z,28.20
2018-06-01T15:26:11.898Z,24.40
2018-06-01T15:28:40.386Z,24.13
2018-06-01T15:31:08.792Z,23.13
2018-06-01T15:33:37.913Z,23.00
2018-06-01T15:36:06.232Z,23.20
2018-06-01T15:38:34.549Z,24.87
2018-06-01T15:41:02.964Z,22.80
2018-06-01T15:43:31.410Z,21.03
2018-06-01T15:45:59.748Z,20.07
2018-06-01T15:48:28.070Z,20.07
2018-06-01T15:50:56.400Z,20.70
2018-06-01T15:53:24.710Z,21.97
2018-06-01T15:55:53.036Z,25.90
2018-06-01T15:58:21.374Z,25.47
2018-06-01T16:00:49.702Z,29.30
2018-06-01T16:03:18.106Z,24.43
2018-06-01T16:05:46.502Z,28.37
2018-06-01T16:08:14.869Z,31.63
2018-06-01T16:10:43.362Z,30.17
2018-06-01T16:13:11.708Z,31.30
2018-06-01T16:15:40.079Z,27.33
2018-06-01T16:18:08.623Z,24.33
2018-06-01T16:20:37.119Z,21.77
2018-06-01T16:23:04.891Z,23.53
2018-06-01T16:25:33.200Z,23.80
2018-06-01T16:28:01.522Z,23.87
2018-06-01T16:30:29.875Z,21.87
2018-06-01T16:32:58.176Z,22.97
2018-06-01T16:35:33.417Z,24.63
2018-06-01T16:38:02.548Z,26.90
2018-06-01T16:40:30.558Z,29.20
2018-06-01T16:42:59.690Z,30.70
2018-06-01T16:45:28.009Z,28.27
2018-06-01T16:47:56.345Z,26.80
2018-06-01T16:50:25.458Z,26.33
2018-06-01T16:52:53.771Z,25.07
2018-06-01T16:55:22.068Z,26.33
2018-06-01T17:00:25.315Z,31.60
2018-06-01T17:02:53.668Z,37.37
2018-06-01T17:05:22.010Z,36.50
2018-06-01T17:07:50.335Z,29.73
2018-06-01T17:10:18.667Z,31.70
2018-06-01T17:12:46.991Z,31.23
2018-06-01T17:15:15.301Z,29.80
2018-06-01T17:17:43.625Z,20.23
2018-06-01T17:20:11.948Z,27.63
2018-06-01T17:22:41.108Z,27.50
2018-06-01T17:25:09.588Z,24.63
2018-06-01T17:27:37.913Z,23.50
2018-06-01T17:30:06.255Z,27.80
2018-06-01T17:32:34.570Z,25.37
2018-06-01T17:35:02.910Z,23.63
2018-06-01T17:37:31.226Z,28.07
2018-06-01T17:39:59.554Z,26.53
2018-06-01T17:42:27.876Z,23.83
2018-06-01T17:44:56.183Z,23.63
2018-06-01T17:47:24.545Z,20.97
2018-06-01T17:49:52.864Z,21.13
2018-06-01T17:52:21.185Z,19.83
2018-06-01T17:54:49.499Z,19.63
2018-06-01T17:57:17.792Z,19.30
2018-06-01T17:59:46.110Z,19.43
2018-06-01T18:02:14.443Z,20.33
2018-06-01T18:04:42.777Z,21.20
2018-06-01T18:07:11.106Z,17.73
2018-06-01T18:09:39.428Z,17.50
2018-06-01T18:12:07.740Z,18.77
2018-06-01T18:14:36.061Z,17.80
2018-06-01T18:17:04.387Z,20.10
2018-06-01T18:19:32.706Z,18.93
2018-06-01T18:22:01.056Z,18.57
2018-06-01T18:24:29.387Z,19.87
2018-06-01T18:26:57.687Z,22.30
2018-06-01T18:29:26.007Z,20.53
2018-06-01T18:31:55.094Z,20.03
2018-06-01T18:34:23.402Z,18.93
2018-06-01T18:36:51.746Z,16.67
2018-06-01T18:39:20.073Z,19.73
2018-06-01T18:41:48.375Z,18.03
2018-06-01T18:44:16.699Z,18.50
2018-06-01T18:46:45.016Z,19.77
2018-06-01T18:49:13.355Z,22.90
2018-06-01T18:51:41.659Z,23.27
2018-06-01T18:54:10.746Z,22.37
2018-06-01T18:56:39.087Z,21.43
2018-06-01T18:59:07.416Z,23.63
2018-06-01T19:01:35.722Z,23.03
2018-06-01T19:04:03.805Z,21.23
2018-06-01T19:06:32.137Z,22.40
2018-06-01T19:09:00.445Z,21.70
2018-06-01T19:11:37.785Z,25.07
2018-06-01T19:14:06.099Z,25.70
2018-06-01T19:16:37.773Z,22.27
2018-06-01T19:19:06.860Z,23.60
2018-06-01T19:21:35.169Z,22.00
2018-06-01T19:24:03.529Z,21.23
2018-06-01T19:26:32.621Z,21.63
2018-06-01T19:29:00.979Z,19.83
2018-06-01T19:31:32.677Z,22.13
2018-06-01T19:34:01.755Z,21.13
2018-06-01T19:36:31.627Z,22.07
2018-06-01T19:38:59.950Z,20.97
2018-06-01T19:41:28.280Z,24.97
2018-06-01T19:43:56.619Z,25.80
2018-06-01T19:46:24.979Z,29.30
2018-06-01T19:48:53.464Z,29.20
2018-06-01T19:51:21.798Z,26.60
2018-06-01T19:53:50.127Z,32.23
2018-06-01T19:56:18.482Z,32.70
2018-06-01T19:58:46.803Z,30.00
2018-06-01T20:01:15.161Z,32.37
2018-06-01T20:03:43.588Z,31.57
2018-06-01T20:06:11.926Z,26.20
2018-06-01T20:08:40.234Z,28.17
2018-06-01T20:11:08.549Z,28.30
2018-06-01T20:13:36.881Z,30.17
2018-06-01T20:16:04.660Z,28.83
2018-06-01T20:18:33.004Z,27.03
2018-06-01T20:21:01.336Z,26.23
2018-06-01T20:23:29.669Z,28.70
2018-06-01T20:25:58.000Z,32.33
2018-06-01T20:28:26.322Z,29.30
2018-06-01T20:30:54.654Z,34.00
2018-06-01T20:33:22.984Z,25.77
2018-06-01T20:35:51.296Z,28.27
2018-06-01T20:38:19.628Z,28.40
2018-06-01T20:40:47.941Z,34.77
2018-06-01T20:43:17.039Z,31.80
2018-06-01T20:45:45.376Z,33.53
2018-06-01T20:48:13.685Z,35.33
2018-06-01T20:50:42.211Z,35.47
2018-06-01T20:53:10.513Z,41.43
2018-06-01T20:55:38.854Z,43.57
2018-06-01T20:58:07.919Z,39.90
2018-06-01T21:00:36.239Z,42.83
2018-06-01T21:03:04.545Z,45.33
2018-06-01T21:05:32.854Z,46.23
2018-06-01T21:08:01.187Z,47.63
2018-06-01T21:10:29.516Z,48.33
2018-06-01T21:13:00.993Z,48.20
2018-06-01T21:15:29.288Z,45.83
2018-06-01T21:17:58.400Z,47.77
2018-06-01T21:20:26.709Z,43.47
2018-06-01T21:23:06.788Z,47.60
2018-06-01T21:25:35.097Z,45.10
2018-06-01T21:28:04.215Z,49.40
2018-06-01T21:30:33.292Z,44.23
2018-06-01T21:33:01.633Z,46.23
2018-06-01T21:35:29.973Z,49.30
2018-06-01T21:38:02.089Z,55.90
2018-06-01T21:40:30.384Z,55.93
2018-06-01T21:42:58.749Z,63.57
2018-06-01T21:45:27.055Z,60.50
2018-06-01T21:47:55.400Z,61.63
2018-06-01T21:50:23.792Z,66.83
2018-06-01T21:52:52.169Z,72.70
2018-06-01T21:55:20.471Z,70.47
2018-06-01T21:57:48.778Z,72.00
2018-06-01T22:00:17.119Z,71.53
2018-06-01T22:02:45.442Z,78.23
2018-06-01T22:05:13.764Z,71.90
2018-06-01T22:07:42.089Z,67.87
2018-06-01T22:10:11.205Z,71.27
2018-06-01T22:12:39.516Z,68.07
2018-06-01T22:15:07.850Z,70.67
2018-06-01T22:17:36.172Z,75.57
2018-06-01T22:20:04.141Z,74.20
2018-06-01T22:22:32.459Z,83.97
2018-06-01T22:25:00.760Z,90.53
2018-06-01T22:27:29.084Z,90.30
2018-06-01T22:29:57.371Z,91.37
2018-06-01T22:32:26.458Z,98.03
2018-06-01T22:34:54.765Z,102.23
2018-06-01T22:37:23.085Z,116.00
2018-06-01T22:39:51.405Z,104.77
2018-06-01T22:42:19.747Z,112.67
2018-06-01T22:44:48.234Z,107.57
2018-06-01T22:47:16.573Z,103.07
2018-06-01T22:49:45.644Z,95.60
2018-06-01T22:52:13.838Z,117.80
2018-06-01T22:54:42.181Z,97.07
2018-06-01T22:57:10.516Z,105.47
2018-06-01T22:59:38.826Z,100.47
2018-06-01T23:02:07.139Z,96.47
2018-06-01T23:04:35.534Z,92.17
2018-06-01T23:07:03.601Z,95.47
2018-06-01T23:09:31.928Z,84.83
2018-06-01T23:12:00.231Z,91.37
2018-06-01T23:14:28.605Z,81.60
2018-06-01T23:16:57.107Z,86.07
2018-06-01T23:19:25.460Z,86.50
2018-06-01T23:21:53.955Z,79.17
2018-06-01T23:24:22.271Z,81.03
2018-06-01T23:26:50.583Z,101.30
2018-06-01T23:29:18.944Z,85.97
2018-06-01T23:31:47.252Z,76.13
2018-06-01T23:34:15.576Z,87.90
2018-06-01T23:36:43.904Z,75.60
2018-06-01T23:39:12.245Z,70.63
2018-06-01T23:41:40.544Z,65.47
2018-06-01T23:44:08.859Z,52.53
2018-06-01T23:46:37.179Z,54.97
2018-06-01T23:49:04.954Z,58.53
2018-06-01T23:51:33.260Z,55.20
2018-06-01T23:54:01.554Z,59.17
2018-06-01T23:56:29.872Z,57.47
2018-06-01T23:58:58.191Z,58.50
